createdAt,value
2023-01-20T00:00:18.237Z,34.03
2023-01-20T00:00:55.153Z,41.47
2023-01-20T00:01:27.802Z,29.67
2023-01-20T00:02:02.585Z,31.38
2023-01-20T00:02:35.424Z,41.22
2023-01-20T00:03:07.779Z,44.03
2023-01-20T00:03:42.595Z,41.28
2023-01-20T00:04:15.383Z,43.00
2023-01-20T00:04:49.019Z,38.33
2023-01-20T00:05:23.703Z,31.33
2023-01-20T00:05:56.032Z,36.20
2023-01-20T00:06:28.561Z,28.17
2023-01-20T00:07:03.392Z,40.03
2023-01-20T00:07:36.129Z,31.75
2023-01-20T00:08:08.194Z,38.38
2023-01-20T00:08:43.244Z,36.30
2023-01-20T00:09:17.221Z,32.63
2023-01-20T00:09:49.324Z,39.22
2023-01-20T00:10:24.026Z,31.25
2023-01-20T00:10:56.473Z,31.30
2023-01-20T00:11:29.459Z,36.75
2023-01-20T00:12:04.157Z,40.83
2023-01-20T00:12:36.965Z,38.08
2023-01-20T00:13:09.108Z,31.95
2023-01-20T00:13:43.795Z,27.08
2023-01-20T00:14:16.451Z,45.05
2023-01-20T00:14:51.398Z,33.85
2023-01-20T00:15:26.067Z,27.30
2023-01-20T00:15:58.210Z,37.22
2023-01-20T00:16:32.151Z,43.28
2023-01-20T00:17:09.955Z,36.92
2023-01-20T00:17:42.069Z,34.95
2023-01-20T00:18:14.196Z,36.63
2023-01-20T00:18:48.859Z,37.28
2023-01-20T00:19:20.989Z,37.60
2023-01-20T00:19:53.103Z,40.88
2023-01-20T00:20:27.736Z,40.08
2023-01-20T00:21:03.500Z,30.38
2023-01-20T00:21:38.136Z,37.25
2023-01-20T00:22:10.291Z,48.67
2023-01-20T00:22:42.467Z,36.55
2023-01-20T00:23:17.114Z,29.80
2023-01-20T00:23:50.171Z,34.10
2023-01-20T00:24:22.287Z,38.28
2023-01-20T00:24:56.951Z,33.15
2023-01-20T00:25:30.214Z,41.78
2023-01-20T00:26:06.651Z,33.67
2023-01-20T00:26:41.338Z,38.75
2023-01-20T00:27:13.602Z,37.38
2023-01-20T00:27:46.807Z,42.05
2023-01-20T00:28:23.106Z,32.47
2023-01-20T00:29:01.775Z,38.45
2023-01-20T00:29:38.102Z,31.58
2023-01-20T00:30:18.437Z,42.70
2023-01-20T00:30:53.619Z,37.33
2023-01-20T00:31:32.492Z,39.53
2023-01-20T00:32:05.015Z,36.80
2023-01-20T00:32:39.643Z,43.88
2023-01-20T00:33:14.351Z,45.28
2023-01-20T00:33:47.450Z,30.02
2023-01-20T00:34:19.582Z,36.55
2023-01-20T00:34:54.534Z,37.28
2023-01-20T00:35:28.803Z,35.65
2023-01-20T00:36:04.528Z,47.55
2023-01-20T00:36:39.392Z,45.42
2023-01-20T00:37:11.468Z,47.03
2023-01-20T00:37:50.656Z,38.90
2023-01-20T00:38:25.369Z,37.20
2023-01-20T00:38:57.713Z,50.33
2023-01-20T00:39:32.547Z,47.47
2023-01-20T00:40:05.950Z,35.92
2023-01-20T00:40:38.064Z,36.63
2023-01-20T00:41:13.245Z,45.78
2023-01-20T00:41:45.393Z,31.10
2023-01-20T00:42:20.067Z,36.42
2023-01-20T00:42:52.246Z,37.58
2023-01-20T00:43:24.362Z,42.40
2023-01-20T00:43:59.033Z,34.83
2023-01-20T00:44:31.112Z,30.75
2023-01-20T00:45:03.516Z,38.75
2023-01-20T00:45:40.741Z,33.17
2023-01-20T00:46:13.505Z,32.28
2023-01-20T00:46:45.635Z,33.47
2023-01-20T00:47:21.085Z,33.25
2023-01-20T00:47:53.223Z,33.65
2023-01-20T00:48:25.529Z,31.42
2023-01-20T00:49:00.287Z,48.70
2023-01-20T00:49:32.405Z,28.23
2023-01-20T00:50:05.500Z,38.80
2023-01-20T00:50:40.133Z,31.85
2023-01-20T00:51:12.509Z,34.75
2023-01-20T00:51:44.610Z,32.58
2023-01-20T00:52:20.396Z,28.20
2023-01-20T00:52:52.475Z,40.80
2023-01-20T00:53:24.673Z,30.40
2023-01-20T00:53:59.388Z,35.40
2023-01-20T00:54:31.456Z,33.60
2023-01-20T00:55:04.000Z,50.70
2023-01-20T00:55:38.675Z,33.25
2023-01-20T00:56:12.935Z,33.67
2023-01-20T00:56:45.060Z,35.38
2023-01-20T00:57:19.703Z,29.15
2023-01-20T00:57:51.788Z,28.70
2023-01-20T00:58:24.431Z,27.90
2023-01-20T00:59:06.229Z,40.53
2023-01-20T00:59:40.672Z,30.17
2023-01-20T01:00:13.576Z,39.03
2023-01-20T01:00:53.474Z,44.50
2023-01-20T01:17:24.041Z,63.25
2023-01-20T01:17:57.665Z,124.95
2023-01-20T01:18:29.857Z,67.57
2023-01-20T01:19:04.599Z,43.83
2023-01-20T01:19:36.710Z,38.13
2023-01-20T01:20:10.911Z,37.03
2023-01-20T01:20:44.898Z,104.07
2023-01-20T01:21:20.053Z,48.75
2023-01-20T01:21:52.212Z,38.25
2023-01-20T01:22:24.441Z,34.53
2023-01-20T01:22:59.221Z,39.72
2023-01-20T01:23:31.361Z,36.03
2023-01-20T01:24:03.772Z,38.50
2023-01-20T01:24:38.409Z,48.28
2023-01-20T01:25:10.740Z,37.65
2023-01-20T01:25:42.825Z,38.72
2023-01-20T01:26:17.606Z,41.95
2023-01-20T01:26:49.693Z,135.45
2023-01-20T01:27:21.793Z,32.97
2023-01-20T01:27:56.460Z,37.00
2023-01-20T01:28:28.570Z,37.80
2023-01-20T01:29:00.663Z,38.33
2023-01-20T01:29:35.379Z,41.47
2023-01-20T01:30:09.552Z,39.65
2023-01-20T01:30:41.829Z,30.80
2023-01-20T01:31:22.090Z,39.05
2023-01-20T01:31:54.283Z,33.58
2023-01-20T01:32:29.043Z,32.03
2023-01-20T01:33:03.774Z,109.55
2023-01-20T01:33:36.755Z,40.65
2023-01-20T01:34:08.848Z,40.42
2023-01-20T01:34:43.590Z,36.25
2023-01-20T01:35:16.227Z,32.33
2023-01-20T01:35:55.491Z,48.17
2023-01-20T01:36:30.127Z,37.65
2023-01-20T01:37:04.862Z,30.67
2023-01-20T01:37:40.029Z,34.67
2023-01-20T01:38:14.805Z,39.70
2023-01-20T01:38:57.916Z,29.73
2023-01-20T01:39:33.960Z,35.92
2023-01-20T01:40:08.024Z,42.00
2023-01-20T01:40:40.223Z,32.38
2023-01-20T01:41:22.434Z,41.17
2023-01-20T01:41:54.585Z,41.92
2023-01-20T01:42:27.092Z,34.05
2023-01-20T01:43:01.769Z,36.10
2023-01-20T01:43:35.856Z,39.35
2023-01-20T01:44:10.222Z,53.90
2023-01-20T01:45:18.548Z,34.63
2023-01-20T01:45:50.776Z,34.42
2023-01-20T01:46:25.596Z,36.33
2023-01-20T01:46:57.771Z,35.83
2023-01-20T01:47:32.567Z,45.90
2023-01-20T01:48:12.600Z,42.20
2023-01-20T01:48:46.214Z,31.25
2023-01-20T01:49:21.455Z,34.65
2023-01-20T01:49:56.282Z,35.95
2023-01-20T01:50:35.214Z,32.47
2023-01-20T01:51:11.639Z,38.45
2023-01-20T01:51:50.780Z,29.77
2023-01-20T01:52:22.973Z,34.60
2023-01-20T01:52:57.117Z,28.02
2023-01-20T01:53:33.650Z,40.80
2023-01-20T01:54:09.653Z,34.35
2023-01-20T01:54:45.629Z,41.47
2023-01-20T01:55:24.136Z,35.90
2023-01-20T01:56:00.847Z,36.97
2023-01-20T01:56:36.701Z,31.55
2023-01-20T01:57:09.288Z,43.78
2023-01-20T01:57:41.886Z,43.28
2023-01-20T01:58:23.084Z,38.65
2023-01-20T01:59:00.306Z,32.97
2023-01-20T01:59:35.786Z,32.00
2023-01-20T02:00:10.148Z,32.78
2023-01-20T02:00:47.007Z,39.67
2023-01-20T02:01:22.226Z,28.42
2023-01-20T02:01:55.582Z,29.40
2023-01-20T02:02:27.806Z,33.45
2023-01-20T02:03:05.355Z,42.22
2023-01-20T02:03:43.082Z,31.05
2023-01-20T02:04:17.759Z,37.88
2023-01-20T02:04:52.870Z,34.80
2023-01-20T02:05:27.407Z,52.65
2023-01-20T02:06:00.137Z,38.42
2023-01-20T02:06:36.975Z,35.85
2023-01-20T02:07:14.446Z,30.23
2023-01-20T02:07:48.556Z,40.83
2023-01-20T02:08:23.387Z,48.22
2023-01-20T02:08:55.601Z,33.28
2023-01-20T02:09:29.100Z,29.38
2023-01-20T02:10:04.362Z,43.05
2023-01-20T02:10:36.674Z,34.30
2023-01-20T02:11:08.814Z,29.85
2023-01-20T02:11:48.780Z,31.23
2023-01-20T02:12:22.881Z,32.85
2023-01-20T02:12:55.361Z,47.53
2023-01-20T02:13:30.203Z,30.35
2023-01-20T02:14:02.617Z,37.63
2023-01-20T02:14:38.403Z,33.47
2023-01-20T02:15:14.097Z,33.92
2023-01-20T02:15:56.371Z,34.35
2023-01-20T02:16:42.316Z,21.35
2023-01-20T02:17:25.289Z,27.38
2023-01-20T02:18:18.818Z,44.25
2023-01-20T02:19:02.663Z,35.53
2023-01-20T02:20:11.786Z,27.13
2023-01-20T02:21:17.390Z,29.00
2023-01-20T02:22:10.539Z,31.08
2023-01-20T02:22:48.663Z,42.70
2023-01-20T02:23:38.317Z,48.60
2023-01-20T02:24:55.148Z,42.47
2023-01-20T02:25:49.265Z,48.45
2023-01-20T02:26:46.156Z,36.40
2023-01-20T02:27:25.803Z,31.10
2023-01-20T02:28:28.433Z,45.05
2023-01-20T02:29:40.241Z,50.05
2023-01-20T02:30:42.503Z,43.47
2023-01-20T02:31:47.626Z,30.65
2023-01-20T02:32:37.525Z,34.95
2023-01-20T02:33:13.633Z,30.67
2023-01-20T02:33:51.706Z,42.15
2023-01-20T02:34:31.522Z,37.30
2023-01-20T02:35:10.345Z,34.78
2023-01-20T02:35:48.724Z,39.78
2023-01-20T02:36:29.173Z,46.05
2023-01-20T02:37:49.711Z,35.40
2023-01-20T02:38:31.046Z,33.40
2023-01-20T02:39:11.840Z,35.60
2023-01-20T02:40:13.215Z,44.35
2023-01-20T02:40:57.178Z,25.48
2023-01-20T02:41:37.938Z,29.85
2023-01-20T02:42:12.824Z,38.72
2023-01-20T02:42:51.762Z,37.53
2023-01-20T02:43:33.839Z,31.90
2023-01-20T02:44:16.148Z,31.60
2023-01-20T02:44:53.233Z,32.58
2023-01-20T02:45:35.603Z,29.02
2023-01-20T02:46:12.137Z,37.88
2023-01-20T02:46:50.604Z,35.25
2023-01-20T02:47:35.647Z,31.83
2023-01-20T02:48:15.068Z,33.13
2023-01-20T02:48:53.472Z,39.40
2023-01-20T02:49:32.731Z,27.17
2023-01-20T02:50:10.324Z,28.60
2023-01-20T02:50:49.658Z,29.98
2023-01-20T02:51:28.940Z,34.65
2023-01-20T02:52:05.665Z,25.33
2023-01-20T02:52:42.398Z,27.13
2023-01-20T02:53:20.579Z,45.35
2023-01-20T02:53:56.375Z,31.27
2023-01-20T02:54:32.143Z,44.08
2023-01-20T02:55:10.620Z,34.60
2023-01-20T02:55:46.731Z,28.42
2023-01-20T02:56:21.606Z,35.45
2023-01-20T02:56:59.844Z,35.60
2023-01-20T02:57:37.930Z,33.03
2023-01-20T02:58:19.789Z,57.50
2023-01-20T02:58:56.685Z,35.22
2023-01-20T02:59:34.273Z,63.08
2023-01-20T03:00:15.640Z,48.08
2023-01-20T03:00:53.275Z,37.85
2023-01-20T03:01:34.140Z,49.13
2023-01-20T03:02:10.449Z,45.20
2023-01-20T03:02:48.021Z,50.75
2023-01-20T03:03:27.036Z,35.10
2023-01-20T03:04:02.221Z,36.50
2023-01-20T03:04:41.461Z,32.63
2023-01-20T03:05:18.977Z,45.60
2023-01-20T03:05:56.346Z,41.63
2023-01-20T03:06:34.989Z,30.08
2023-01-20T03:07:10.525Z,42.42
2023-01-20T03:07:44.696Z,43.22
2023-01-20T03:08:20.353Z,50.30
2023-01-20T03:08:56.179Z,41.33
2023-01-20T03:09:35.712Z,42.28
2023-01-20T03:10:13.122Z,48.90
2023-01-20T03:10:48.101Z,42.40
2023-01-20T03:11:23.603Z,43.03
2023-01-20T03:12:01.905Z,37.63
2023-01-20T03:12:39.551Z,36.33
2023-01-20T03:13:19.467Z,42.95
2023-01-20T03:13:58.921Z,42.15
2023-01-20T03:14:31.694Z,37.13
2023-01-20T03:15:07.449Z,46.20
2023-01-20T03:15:51.067Z,48.35
2023-01-20T03:16:25.336Z,93.95
2023-01-20T03:17:00.123Z,45.80
2023-01-20T03:17:33.656Z,30.08
2023-01-20T03:18:08.356Z,62.13
2023-01-20T03:18:43.436Z,38.45
2023-01-20T03:19:20.263Z,39.53
2023-01-20T03:19:52.836Z,40.85
2023-01-20T03:20:27.800Z,34.60
2023-01-20T03:21:01.570Z,31.10
2023-01-20T03:21:34.438Z,31.60
2023-01-20T03:22:09.479Z,34.95
2023-01-20T03:22:41.768Z,33.72
2023-01-20T03:23:13.914Z,37.30
2023-01-20T03:23:53.224Z,32.92
2023-01-20T03:24:29.068Z,38.67
2023-01-20T03:25:02.596Z,39.10
2023-01-20T03:25:38.148Z,35.13
2023-01-20T03:26:12.597Z,46.03
2023-01-20T03:26:44.835Z,29.88
2023-01-20T03:27:20.958Z,48.40
2023-01-20T03:27:53.086Z,23.02
2023-01-20T03:28:25.881Z,43.47
2023-01-20T03:29:01.212Z,43.72
2023-01-20T03:29:33.384Z,36.50
2023-01-20T03:30:12.255Z,43.78
2023-01-20T03:30:47.131Z,32.63
2023-01-20T03:31:22.996Z,40.33
2023-01-20T03:32:02.979Z,47.90
2023-01-20T03:32:35.214Z,43.97
2023-01-20T03:33:10.968Z,28.70
2023-01-20T03:33:47.514Z,24.60
2023-01-20T03:34:23.245Z,28.05
2023-01-20T03:34:56.955Z,28.90
2023-01-20T03:35:31.911Z,32.60
2023-01-20T03:36:04.682Z,40.38
2023-01-20T03:36:38.163Z,35.78
2023-01-20T03:37:16.221Z,34.03
2023-01-20T03:37:48.677Z,28.60
2023-01-20T03:38:21.271Z,30.95
2023-01-20T03:38:57.562Z,33.85
2023-01-20T03:39:33.914Z,27.50
2023-01-20T03:40:08.054Z,32.80
2023-01-20T03:40:50.272Z,33.40
2023-01-20T03:41:29.732Z,33.58
2023-01-20T03:42:12.343Z,41.03
2023-01-20T03:42:56.288Z,45.53
2023-01-20T03:43:37.095Z,34.42
2023-01-20T03:44:16.988Z,37.60
2023-01-20T03:45:00.640Z,38.50
2023-01-20T03:45:41.644Z,28.45
2023-01-20T03:46:22.840Z,26.98
2023-01-20T03:47:08.786Z,27.30
2023-01-20T03:47:50.632Z,41.50
2023-01-20T03:48:37.240Z,25.33
2023-01-20T03:49:17.729Z,29.02
2023-01-20T03:49:56.771Z,28.00
2023-01-20T03:50:39.251Z,42.92
2023-01-20T03:51:18.558Z,48.75
2023-01-20T03:52:03.318Z,37.60
2023-01-20T03:52:47.836Z,24.65
2023-01-20T03:53:30.534Z,41.30
2023-01-20T03:54:09.839Z,54.35
2023-01-20T03:54:48.857Z,40.05
2023-01-20T03:55:24.374Z,42.80
2023-01-20T03:56:05.117Z,38.75
2023-01-20T03:56:42.555Z,34.00
2023-01-20T03:57:18.670Z,35.20
2023-01-20T03:57:58.686Z,37.78
2023-01-20T03:58:35.455Z,35.97
2023-01-20T03:59:11.351Z,45.83
2023-01-20T03:59:49.209Z,95.53
2023-01-20T04:00:23.158Z,35.65
2023-01-20T04:00:57.884Z,44.35
2023-01-20T04:01:37.184Z,93.68
2023-01-20T04:02:11.211Z,65.63
2023-01-20T04:02:43.803Z,52.30
2023-01-20T04:03:25.871Z,49.90
2023-01-20T04:04:03.086Z,33.53
2023-01-20T04:04:38.287Z,41.88
2023-01-20T04:05:14.291Z,51.45
2023-01-20T04:05:48.447Z,57.08
2023-01-20T04:06:23.700Z,52.92
2023-01-20T04:06:58.720Z,37.60
2023-01-20T04:07:35.182Z,43.13
2023-01-20T04:08:10.181Z,49.17
2023-01-20T04:08:50.454Z,47.92
2023-01-20T04:09:29.062Z,62.05
2023-01-20T04:10:08.361Z,52.40
2023-01-20T04:10:43.054Z,51.88
2023-01-20T04:11:15.243Z,55.25
2023-01-20T04:11:52.734Z,67.68
2023-01-20T04:12:25.117Z,81.70
2023-01-20T04:12:57.278Z,70.10
2023-01-20T04:13:32.598Z,65.75
2023-01-20T04:14:09.098Z,68.40
2023-01-20T04:14:41.354Z,63.00
2023-01-20T04:15:19.229Z,47.58
2023-01-20T04:15:51.721Z,55.67
2023-01-20T04:16:25.846Z,45.83
2023-01-20T04:17:01.912Z,36.30
2023-01-20T04:17:34.316Z,38.20
2023-01-20T04:18:15.573Z,55.80
2023-01-20T04:18:53.941Z,38.30
2023-01-20T04:19:28.684Z,56.58
2023-01-20T04:20:06.548Z,57.00
2023-01-20T04:20:41.271Z,50.75
2023-01-20T04:21:20.419Z,56.83
2023-01-20T04:22:00.314Z,32.85
2023-01-20T04:22:42.098Z,50.17
2023-01-20T04:23:21.347Z,46.25
2023-01-20T04:23:59.131Z,45.95
2023-01-20T04:24:40.562Z,44.95
2023-01-20T04:25:17.585Z,56.95
2023-01-20T04:25:49.786Z,54.45
2023-01-20T04:26:24.502Z,39.42
2023-01-20T04:26:56.604Z,58.60
2023-01-20T04:27:29.040Z,72.15
2023-01-20T04:28:03.761Z,51.10
2023-01-20T04:28:35.883Z,43.03
2023-01-20T04:29:11.232Z,50.40
2023-01-20T04:29:50.378Z,60.17
2023-01-20T04:30:25.617Z,53.28
2023-01-20T04:30:59.521Z,76.97
2023-01-20T04:31:34.372Z,81.40
2023-01-20T04:32:06.547Z,77.95
2023-01-20T04:32:38.893Z,72.75
2023-01-20T04:33:13.565Z,86.30
2023-01-20T04:33:48.004Z,66.82
2023-01-20T04:34:20.180Z,49.15
2023-01-20T04:34:54.888Z,65.80
2023-01-20T04:35:29.838Z,64.60
2023-01-20T04:36:01.935Z,59.00
2023-01-20T04:36:36.830Z,67.13
2023-01-20T04:37:08.954Z,69.15
2023-01-20T04:37:41.275Z,69.93
2023-01-20T04:38:15.954Z,83.72
2023-01-20T04:38:48.025Z,77.95
2023-01-20T04:39:20.443Z,73.93
2023-01-20T04:39:55.209Z,64.13
2023-01-20T04:40:27.441Z,70.28
2023-01-20T04:40:59.519Z,61.45
2023-01-20T04:41:34.244Z,66.68
2023-01-20T04:42:06.435Z,61.97
2023-01-20T04:42:40.005Z,72.97
2023-01-20T04:43:15.687Z,74.65
2023-01-20T04:43:47.899Z,62.20
2023-01-20T04:44:22.124Z,71.80
2023-01-20T04:44:56.820Z,57.50
2023-01-20T04:45:29.019Z,52.88
2023-01-20T04:46:01.198Z,56.13
2023-01-20T04:46:37.074Z,70.30
2023-01-20T04:47:09.327Z,49.67
2023-01-20T04:47:41.447Z,45.45
2023-01-20T04:48:16.131Z,44.72
2023-01-20T04:48:48.514Z,51.33
2023-01-20T04:49:20.732Z,51.67
2023-01-20T04:49:58.355Z,60.63
2023-01-20T04:50:30.458Z,65.65
2023-01-20T04:51:07.382Z,48.35
2023-01-20T04:51:39.611Z,44.97
2023-01-20T04:52:14.560Z,48.90
2023-01-20T04:52:49.340Z,48.70
2023-01-20T04:53:21.442Z,54.72
2023-01-20T04:53:59.743Z,47.85
2023-01-20T04:54:34.742Z,42.83
2023-01-20T04:55:07.940Z,57.60
2023-01-20T04:55:40.191Z,58.13
2023-01-20T04:56:15.758Z,60.67
2023-01-20T04:56:48.502Z,58.58
2023-01-20T04:57:20.675Z,67.43
2023-01-20T04:57:55.342Z,39.03
2023-01-20T04:58:30.201Z,60.58
2023-01-20T04:59:05.500Z,62.22
2023-01-20T04:59:40.139Z,50.75
2023-01-20T05:00:18.679Z,60.20
2023-01-20T05:00:50.876Z,50.20
2023-01-20T05:01:25.712Z,42.30
2023-01-20T05:01:58.151Z,31.20
2023-01-20T05:02:30.351Z,54.67
2023-01-20T05:03:06.366Z,58.38
2023-01-20T05:03:38.566Z,60.97
2023-01-20T05:04:10.717Z,50.83
2023-01-20T05:04:45.399Z,48.80
2023-01-20T05:05:20.252Z,61.47
2023-01-20T05:05:53.247Z,44.83
2023-01-20T05:06:28.032Z,49.05
2023-01-20T05:07:00.162Z,37.70
2023-01-20T05:07:32.271Z,47.30
2023-01-20T05:08:07.068Z,45.55
2023-01-20T05:08:39.403Z,51.15
2023-01-20T05:09:13.765Z,57.80
2023-01-20T05:09:48.452Z,49.28
2023-01-20T05:10:23.659Z,56.13
2023-01-20T05:10:58.015Z,46.70
2023-01-20T05:11:32.674Z,72.00
2023-01-20T05:12:05.711Z,56.65
2023-01-20T05:12:37.830Z,66.03
2023-01-20T05:13:12.507Z,51.30
2023-01-20T05:13:44.597Z,72.88
2023-01-20T05:14:16.799Z,73.63
2023-01-20T05:14:51.484Z,64.50
2023-01-20T05:15:24.777Z,48.15
2023-01-20T05:15:57.192Z,61.78
2023-01-20T05:16:32.235Z,56.45
2023-01-20T05:17:04.341Z,62.13
2023-01-20T05:17:36.511Z,67.70
2023-01-20T05:18:11.210Z,61.40
2023-01-20T05:18:43.273Z,61.35
2023-01-20T05:19:18.823Z,57.13
2023-01-20T05:19:53.478Z,45.28
2023-01-20T05:20:29.147Z,53.10
2023-01-20T05:21:01.595Z,54.70
2023-01-20T05:21:38.500Z,54.25
2023-01-20T05:22:10.748Z,57.38
2023-01-20T05:22:42.850Z,72.95
2023-01-20T05:23:17.895Z,52.00
2023-01-20T05:23:50.141Z,61.75
2023-01-20T05:24:22.472Z,51.55
2023-01-20T05:24:57.141Z,49.83
2023-01-20T05:25:29.288Z,53.45
2023-01-20T05:26:01.413Z,49.67
2023-01-20T05:26:36.122Z,51.15
2023-01-20T05:27:08.297Z,57.15
2023-01-20T05:27:40.433Z,57.63
2023-01-20T05:28:15.093Z,65.30
2023-01-20T05:28:47.347Z,59.85
2023-01-20T05:29:19.583Z,59.05
2023-01-20T05:29:54.245Z,53.95
2023-01-20T05:30:29.641Z,60.22
2023-01-20T05:31:04.524Z,51.50
2023-01-20T05:31:37.706Z,53.92
2023-01-20T05:32:09.994Z,64.57
2023-01-20T05:32:47.478Z,63.42
2023-01-20T05:33:19.618Z,62.22
2023-01-20T05:33:51.909Z,62.80
2023-01-20T05:34:26.627Z,59.92
2023-01-20T05:34:58.764Z,55.60
2023-01-20T05:35:40.192Z,57.35
2023-01-20T05:36:12.852Z,85.63
2023-01-20T05:36:45.005Z,45.67
2023-01-20T05:37:20.075Z,65.80
2023-01-20T05:37:53.541Z,59.00
2023-01-20T05:38:25.676Z,53.60
2023-01-20T05:39:00.353Z,78.75
2023-01-20T05:39:32.507Z,59.95
2023-01-20T05:40:05.816Z,57.95
2023-01-20T05:40:40.632Z,60.97
2023-01-20T05:41:13.171Z,58.25
2023-01-20T05:41:46.598Z,61.60
2023-01-20T05:42:21.258Z,61.33
2023-01-20T05:42:53.452Z,66.28
2023-01-20T05:43:25.583Z,65.63
2023-01-20T05:44:00.370Z,81.53
2023-01-20T05:44:32.615Z,66.80
2023-01-20T05:45:06.262Z,68.63
2023-01-20T05:45:42.369Z,46.03
2023-01-20T05:46:15.683Z,64.55
2023-01-20T05:46:47.813Z,63.03
2023-01-20T05:47:22.501Z,48.75
2023-01-20T05:47:55.519Z,63.40
2023-01-20T05:48:27.822Z,50.05
2023-01-20T05:49:03.184Z,65.28
2023-01-20T05:49:35.396Z,82.32
2023-01-20T05:50:08.556Z,70.43
2023-01-20T05:50:45.931Z,56.08
2023-01-20T05:51:18.048Z,74.93
2023-01-20T05:51:50.184Z,67.15
2023-01-20T05:52:25.150Z,67.53
2023-01-20T05:52:59.108Z,77.00
2023-01-20T05:53:31.999Z,81.72
2023-01-20T05:54:10.663Z,58.72
2023-01-20T05:54:47.266Z,61.25
2023-01-20T05:55:21.339Z,63.90
2023-01-20T05:56:00.593Z,63.95
2023-01-20T05:56:35.576Z,61.72
2023-01-20T05:57:10.100Z,57.35
2023-01-20T05:57:45.855Z,62.38
2023-01-20T05:58:20.596Z,46.58
2023-01-20T05:58:54.661Z,70.28
2023-01-20T05:59:29.498Z,61.90
2023-01-20T06:00:05.014Z,64.00
2023-01-20T06:00:37.421Z,78.70
2023-01-20T06:01:16.563Z,69.72
2023-01-20T06:01:51.420Z,62.08
2023-01-20T06:02:23.827Z,67.30
2023-01-20T06:03:01.680Z,77.47
2023-01-20T06:03:34.525Z,47.72
2023-01-20T06:04:09.405Z,58.83
2023-01-20T06:04:44.662Z,66.10
2023-01-20T06:05:19.921Z,57.78
2023-01-20T06:06:02.937Z,71.80
2023-01-20T06:06:35.088Z,61.50
2023-01-20T06:07:09.944Z,67.70
2023-01-20T06:07:42.059Z,70.65
2023-01-20T06:08:14.162Z,68.35
2023-01-20T06:08:49.711Z,84.75
2023-01-20T06:09:22.087Z,95.88
2023-01-20T06:09:54.277Z,66.20
2023-01-20T06:10:29.626Z,110.68
2023-01-20T06:11:02.838Z,49.03
2023-01-20T06:11:35.033Z,75.35
2023-01-20T06:12:09.881Z,63.72
2023-01-20T06:12:42.050Z,73.57
2023-01-20T06:13:23.357Z,116.93
2023-01-20T06:13:56.791Z,71.43
2023-01-20T06:14:31.925Z,57.80
2023-01-20T06:15:07.592Z,51.28
2023-01-20T06:15:43.735Z,57.08
2023-01-20T06:16:26.056Z,59.67
2023-01-20T06:16:58.435Z,51.60
2023-01-20T06:17:33.193Z,62.75
2023-01-20T06:18:06.086Z,52.90
2023-01-20T06:18:41.059Z,71.50
2023-01-20T06:19:15.305Z,66.57
2023-01-20T07:25:11.574Z,58.35
2023-01-20T07:25:43.677Z,86.60
2023-01-20T07:26:20.055Z,109.25
2023-01-20T07:26:52.953Z,83.53
2023-01-20T07:27:27.624Z,82.85
2023-01-20T07:27:59.711Z,94.70
2023-01-20T07:28:32.565Z,72.82
2023-01-20T07:29:07.288Z,71.40
2023-01-20T07:29:42.209Z,52.40
2023-01-20T07:30:14.656Z,77.97
2023-01-20T07:30:51.531Z,79.57
2023-01-20T07:31:28.279Z,94.13
2023-01-20T07:32:02.921Z,45.53
2023-01-20T07:32:35.367Z,48.13
2023-01-20T07:33:07.473Z,59.33
2023-01-20T07:33:42.706Z,68.82
2023-01-20T07:34:14.829Z,65.13
2023-01-20T07:34:49.378Z,119.47
2023-01-20T07:35:24.956Z,68.22
2023-01-20T07:35:57.155Z,81.03
2023-01-20T07:36:34.419Z,57.42
2023-01-20T07:37:06.497Z,85.35
2023-01-20T07:37:41.172Z,73.85
2023-01-20T07:38:13.262Z,74.05
2023-01-20T07:38:47.853Z,74.50
2023-01-20T07:39:22.851Z,52.03
2023-01-20T07:39:54.940Z,60.75
2023-01-20T07:40:29.739Z,41.60
2023-01-20T07:41:06.285Z,55.83
2023-01-20T07:41:38.376Z,51.88
2023-01-20T07:42:13.072Z,44.55
2023-01-20T07:42:46.531Z,74.70
2023-01-20T07:43:18.789Z,70.35
2023-01-20T07:43:55.028Z,55.83
2023-01-20T07:44:27.129Z,41.38
2023-01-20T07:44:59.264Z,56.53
2023-01-20T07:45:34.008Z,86.53
2023-01-20T07:46:06.196Z,48.38
2023-01-20T07:46:40.943Z,55.10
2023-01-20T07:47:13.014Z,46.38
2023-01-20T07:47:45.199Z,59.05
2023-01-20T07:48:19.829Z,52.33
2023-01-20T07:48:52.098Z,59.60
2023-01-20T07:49:27.153Z,72.65
2023-01-20T07:49:59.327Z,73.13
2023-01-20T07:50:31.441Z,49.30
2023-01-20T07:51:08.430Z,59.05
2023-01-20T07:51:40.528Z,62.35
2023-01-20T07:52:15.205Z,61.95
2023-01-20T07:52:47.317Z,63.63
2023-01-20T07:53:22.148Z,93.25
2023-01-20T07:53:56.910Z,73.65
2023-01-20T07:54:29.012Z,78.97
2023-01-20T07:55:01.195Z,66.00
2023-01-20T07:55:38.699Z,50.28
2023-01-20T07:56:13.226Z,42.17
2023-01-20T07:56:47.909Z,52.85
2023-01-20T07:57:20.014Z,54.90
2023-01-20T07:57:52.283Z,62.28
2023-01-20T07:58:27.521Z,56.13
2023-01-20T07:58:59.693Z,73.18
2023-01-20T07:59:34.354Z,84.55
2023-01-20T08:00:09.226Z,77.47
2023-01-20T08:00:41.337Z,71.10
2023-01-20T08:01:21.545Z,56.67
2023-01-20T08:01:53.818Z,58.97
2023-01-20T08:02:26.968Z,71.50
2023-01-20T08:03:04.643Z,55.00
2023-01-20T08:03:37.334Z,54.20
2023-01-20T08:04:13.225Z,38.03
2023-01-20T08:04:45.400Z,50.67
2023-01-20T08:05:17.955Z,53.60
2023-01-20T08:05:57.714Z,42.17
2023-01-20T08:06:30.622Z,66.90
2023-01-20T08:07:06.539Z,86.68
2023-01-20T08:07:38.653Z,72.68
2023-01-20T08:08:10.803Z,49.58
2023-01-20T08:08:45.830Z,67.70
2023-01-20T08:09:18.006Z,90.90
2023-01-20T08:09:52.692Z,58.67
2023-01-20T08:10:24.905Z,67.25
2023-01-20T08:11:02.400Z,89.28
2023-01-20T08:11:41.664Z,83.93
2023-01-20T08:12:16.380Z,47.90
2023-01-20T08:12:48.483Z,50.33
2023-01-20T08:13:23.197Z,81.47
2023-01-20T08:13:55.344Z,79.88
2023-01-20T08:14:30.182Z,57.03
2023-01-20T08:15:02.315Z,57.70
2023-01-20T08:15:37.096Z,62.05
2023-01-20T08:16:11.639Z,36.80
2023-01-20T08:16:46.432Z,46.33
2023-01-20T08:17:18.758Z,40.28
2023-01-20T08:17:56.412Z,64.35
2023-01-20T08:18:29.144Z,48.72
2023-01-20T08:19:03.822Z,62.47
2023-01-20T08:19:36.052Z,55.20
2023-01-20T08:20:10.172Z,56.38
2023-01-20T08:20:44.993Z,65.28
2023-01-20T08:21:19.627Z,57.95
2023-01-20T08:21:54.318Z,31.92
2023-01-20T08:22:26.597Z,78.70
2023-01-20T08:23:01.289Z,57.97
2023-01-20T08:23:33.760Z,56.90
2023-01-20T08:24:08.698Z,36.92
2023-01-20T08:24:40.967Z,71.97
2023-01-20T08:25:13.350Z,48.97
2023-01-20T08:25:48.207Z,64.10
2023-01-20T08:26:25.074Z,55.17
2023-01-20T08:27:01.912Z,67.05
2023-01-20T08:27:34.085Z,58.03
2023-01-20T08:28:06.456Z,60.45
2023-01-20T08:28:41.143Z,64.68
2023-01-20T08:29:14.766Z,54.13
2023-01-20T08:29:50.340Z,55.08
2023-01-20T08:30:22.455Z,65.05
2023-01-20T08:30:54.715Z,55.42
2023-01-20T08:31:30.319Z,55.85
2023-01-20T08:32:02.707Z,78.47
2023-01-20T08:32:37.683Z,60.33
2023-01-20T08:33:09.802Z,66.13
2023-01-20T08:33:48.146Z,65.72
2023-01-20T08:34:21.042Z,65.50
2023-01-20T08:34:55.776Z,74.30
2023-01-20T08:35:28.033Z,85.63
2023-01-20T08:36:05.193Z,94.60
2023-01-20T08:36:42.970Z,78.22
2023-01-20T08:37:15.047Z,28.23
2023-01-20T08:37:47.174Z,63.80
2023-01-20T08:38:21.909Z,74.30
2023-01-20T08:38:55.402Z,78.15
2023-01-20T08:39:30.047Z,66.90
2023-01-20T08:40:02.244Z,46.78
2023-01-20T08:40:34.428Z,53.42
2023-01-20T08:41:10.826Z,72.18
2023-01-20T08:41:47.191Z,63.15
2023-01-20T08:42:21.972Z,98.18
2023-01-20T08:42:54.105Z,96.53
2023-01-20T08:43:29.145Z,86.38
2023-01-20T08:44:02.997Z,63.50
2023-01-20T08:44:38.759Z,77.60
2023-01-20T08:45:11.616Z,73.57
2023-01-20T08:45:46.371Z,84.13
2023-01-20T08:46:20.251Z,46.95
2023-01-20T08:47:01.581Z,46.72
2023-01-20T08:47:36.095Z,91.35
2023-01-20T08:48:08.881Z,56.10
2023-01-20T08:48:45.687Z,63.28
2023-01-20T08:49:17.907Z,61.20
2023-01-20T08:49:50.216Z,50.40
2023-01-20T08:50:25.267Z,70.78
2023-01-20T08:50:57.457Z,58.30
2023-01-20T08:51:34.395Z,55.60
2023-01-20T08:52:06.511Z,47.03
2023-01-20T08:52:43.621Z,51.80
2023-01-20T08:53:15.725Z,55.80
2023-01-20T08:53:48.940Z,59.90
2023-01-20T08:54:23.621Z,49.67
2023-01-20T08:54:55.840Z,50.53
2023-01-20T08:55:31.329Z,68.65
2023-01-20T08:56:04.514Z,59.88
2023-01-20T08:56:39.321Z,53.38
2023-01-20T08:57:15.132Z,63.00
2023-01-20T08:57:47.242Z,61.33
2023-01-20T08:58:23.456Z,62.10
2023-01-20T08:58:58.041Z,45.97